createdAt,value
2018-09-04T00:01:13.590Z,27.93
2018-09-04T00:03:49.593Z,31.70
2018-09-04T00:06:25.593Z,28.60
2018-09-04T00:09:01.564Z,29.20
2018-09-04T00:11:37.450Z,30.03
2018-09-04T00:14:13.233Z,32.73
2018-09-04T00:16:49.171Z,31.50
2018-09-04T00:19:24.980Z,33.93
2018-09-04T00:22:00.996Z,28.43
2018-09-04T00:24:36.804Z,30.73
2018-09-04T00:27:12.718Z,27.60
2018-09-04T00:29:48.449Z,27.30
2018-09-04T00:32:24.407Z,27.97
2018-09-04T00:35:00.256Z,31.57
2018-09-04T00:37:36.107Z,26.70
2018-09-04T00:40:11.969Z,28.03
2018-09-04T00:42:47.940Z,32.53
2018-09-04T00:45:23.868Z,31.10
2018-09-04T00:47:59.842Z,33.17
2018-09-04T00:50:35.633Z,31.93
2018-09-04T00:53:11.658Z,29.63
2018-09-04T00:55:47.497Z,30.67
2018-09-04T00:58:23.374Z,29.53
2018-09-04T01:00:59.415Z,26.40
2018-09-04T01:03:35.567Z,29.43
2018-09-04T01:06:11.578Z,28.47
2018-09-04T01:08:47.375Z,29.00
2018-09-04T01:11:23.300Z,26.27
2018-09-04T01:13:59.367Z,26.43
2018-09-04T01:16:35.542Z,26.73
2018-09-04T01:19:11.439Z,23.13
2018-09-04T01:21:47.308Z,25.33
2018-09-04T01:24:23.339Z,23.10
2018-09-04T01:26:59.211Z,26.77
2018-09-04T01:29:35.204Z,28.37
2018-09-04T01:32:11.366Z,23.97
2018-09-04T01:34:47.216Z,26.37
2018-09-04T01:37:23.293Z,26.20
2018-09-04T01:39:59.149Z,25.30
2018-09-04T01:42:34.947Z,24.90
2018-09-04T01:45:10.882Z,25.20
2018-09-04T01:47:46.872Z,25.53
2018-09-04T01:50:22.886Z,22.17
2018-09-04T01:52:58.837Z,27.27
2018-09-04T01:55:34.885Z,29.30
2018-09-04T01:58:10.780Z,28.90
2018-09-04T02:00:46.626Z,25.40
2018-09-04T02:03:22.605Z,28.57
2018-09-04T02:05:58.507Z,30.07
2018-09-04T02:08:34.456Z,28.97
2018-09-04T02:11:10.456Z,33.03
2018-09-04T02:13:46.405Z,33.97
2018-09-04T02:16:22.429Z,34.33
2018-09-04T02:18:58.318Z,36.13
2018-09-04T02:21:34.196Z,30.30
2018-09-04T02:24:40.661Z,31.87
2018-09-04T02:27:16.583Z,31.50
2018-09-04T02:29:52.571Z,25.50
2018-09-04T02:32:28.430Z,32.33
2018-09-04T02:35:04.380Z,36.07
2018-09-04T02:37:40.372Z,33.03
2018-09-04T02:40:16.344Z,27.47
2018-09-04T02:42:52.220Z,28.27
2018-09-04T02:45:28.024Z,27.43
2018-09-04T02:48:03.824Z,30.27
2018-09-04T02:50:39.539Z,28.40
2018-09-04T02:53:15.539Z,28.03
2018-09-04T02:55:51.465Z,27.60
2018-09-04T02:58:27.451Z,23.87
2018-09-04T03:01:03.264Z,27.67
2018-09-04T03:03:39.162Z,27.13
2018-09-04T03:06:15.131Z,29.07
2018-09-04T03:08:51.049Z,32.07
2018-09-04T03:11:26.970Z,31.10
2018-09-04T03:14:03.056Z,31.90
2018-09-04T03:16:39.072Z,37.20
2018-09-04T03:19:15.059Z,35.77
2018-09-04T03:21:50.910Z,33.57
2018-09-04T03:24:26.709Z,30.77
2018-09-04T03:27:02.492Z,31.47
2018-09-04T03:29:38.329Z,32.03
2018-09-04T03:32:14.235Z,30.50
2018-09-04T03:34:50.195Z,33.63
2018-09-04T03:37:26.106Z,29.63
2018-09-04T03:40:01.872Z,34.23
2018-09-04T03:42:37.860Z,27.97
2018-09-04T03:45:13.711Z,31.00
2018-09-04T03:47:49.528Z,30.17
2018-09-04T03:50:25.517Z,32.33
2018-09-04T03:53:01.377Z,33.50
2018-09-04T03:55:37.339Z,32.47
2018-09-04T03:58:13.407Z,31.57
2018-09-04T04:00:49.334Z,33.90
2018-09-04T04:03:25.338Z,36.43
2018-09-04T04:06:01.153Z,30.47
2018-09-04T04:08:37.065Z,32.23
2018-09-04T04:11:12.887Z,32.00
2018-09-04T04:13:48.871Z,34.23
2018-09-04T04:16:24.736Z,36.63
2018-09-04T04:19:00.692Z,31.63
2018-09-04T04:21:36.387Z,37.37
2018-09-04T04:24:12.140Z,34.67
2018-09-04T04:26:48.011Z,33.00
2018-09-04T04:29:24.139Z,30.00
2018-09-04T04:31:59.944Z,32.97
2018-09-04T04:34:35.953Z,30.40
2018-09-04T04:37:11.813Z,30.17
2018-09-04T04:39:47.546Z,31.50
2018-09-04T04:42:23.541Z,31.97
2018-09-04T04:44:59.535Z,35.10
2018-09-04T04:47:40.463Z,30.80
2018-09-04T04:50:16.752Z,29.33
2018-09-04T04:52:52.683Z,31.83
2018-09-04T04:55:28.531Z,32.10
2018-09-04T04:58:04.485Z,30.73
2018-09-04T05:00:40.428Z,32.50
2018-09-04T05:03:16.395Z,32.47
2018-09-04T05:05:52.361Z,33.53
2018-09-04T05:08:28.346Z,29.47
2018-09-04T05:11:04.414Z,31.17
2018-09-04T05:13:40.216Z,30.67
2018-09-04T05:16:16.250Z,30.70
2018-09-04T05:18:52.200Z,30.30
2018-09-04T05:21:28.180Z,28.20
2018-09-04T05:24:04.188Z,33.37
2018-09-04T05:26:40.181Z,33.57
2018-09-04T05:29:15.986Z,33.23
2018-09-04T05:32:03.096Z,30.47
2018-09-04T05:34:38.980Z,33.83
2018-09-04T05:37:14.910Z,37.27
2018-09-04T05:39:50.915Z,33.00
2018-09-04T05:42:30.663Z,33.73
2018-09-04T05:45:07.864Z,32.00
2018-09-04T05:47:43.845Z,35.50
2018-09-04T05:50:19.852Z,35.57
2018-09-04T05:52:55.659Z,40.77
2018-09-04T05:55:31.483Z,28.97
2018-09-04T05:58:07.574Z,29.93
2018-09-04T06:00:48.173Z,33.83
2018-09-04T06:03:24.146Z,35.63
2018-09-04T06:05:59.905Z,38.77
2018-09-04T06:08:35.792Z,40.43
2018-09-04T06:11:11.696Z,41.37
2018-09-04T06:13:47.623Z,36.70
2018-09-04T06:16:23.531Z,34.57
2018-09-04T06:18:59.343Z,33.80
2018-09-04T06:21:35.331Z,35.20
2018-09-04T06:24:11.238Z,37.27
2018-09-04T06:26:47.096Z,40.30
2018-09-04T06:29:23.182Z,42.20
2018-09-04T06:31:59.179Z,39.47
2018-09-04T06:34:35.041Z,37.20
2018-09-04T06:37:11.004Z,38.33
2018-09-04T06:39:47.167Z,38.80
2018-09-04T06:42:23.176Z,34.50
2018-09-04T06:44:59.230Z,37.73
2018-09-04T06:47:35.164Z,38.87
2018-09-04T06:50:11.039Z,38.07
2018-09-04T06:52:46.912Z,42.67
2018-09-04T06:55:22.829Z,39.13
2018-09-04T06:57:58.736Z,39.20
2018-09-04T07:00:34.509Z,42.60
2018-09-04T07:03:10.497Z,38.40
2018-09-04T07:05:46.503Z,43.03
2018-09-04T07:08:22.399Z,34.77
2018-09-04T07:10:58.348Z,39.33
2018-09-04T07:13:34.177Z,50.57
2018-09-04T07:16:10.191Z,47.03
2018-09-04T07:18:46.156Z,44.47
2018-09-04T07:21:22.070Z,49.13
2018-09-04T07:23:57.898Z,43.43
2018-09-04T07:26:33.797Z,53.47
2018-09-04T07:29:09.953Z,54.07
2018-09-04T07:31:45.975Z,51.97
2018-09-04T07:34:21.987Z,51.07
2018-09-04T07:36:58.011Z,53.77
2018-09-04T07:39:34.037Z,58.07
2018-09-04T07:42:10.032Z,58.03
2018-09-04T07:44:46.109Z,60.17
2018-09-04T07:47:22.099Z,57.73
2018-09-04T07:49:58.064Z,60.60
2018-09-04T07:52:33.980Z,56.93
2018-09-04T07:55:10.283Z,58.50
2018-09-04T07:57:46.380Z,57.73
2018-09-04T08:00:22.363Z,55.27
2018-09-04T08:02:58.332Z,59.13
2018-09-04T08:05:34.180Z,50.17
2018-09-04T08:08:10.153Z,61.30
2018-09-04T08:10:46.184Z,60.60
2018-09-04T08:13:22.132Z,62.87
2018-09-04T08:15:58.185Z,60.47
2018-09-04T08:18:34.162Z,57.50
2018-09-04T08:21:10.209Z,58.30
2018-09-04T08:23:46.231Z,59.33
2018-09-04T08:26:22.095Z,58.87
2018-09-04T08:28:57.916Z,56.67
2018-09-04T08:31:33.957Z,58.97
2018-09-04T08:34:09.896Z,60.50
2018-09-04T08:36:45.769Z,55.60
2018-09-04T08:39:21.855Z,58.17
2018-09-04T08:41:57.867Z,56.77
2018-09-04T08:44:33.700Z,57.60
2018-09-04T08:47:09.782Z,56.23
2018-09-04T08:49:45.821Z,52.63
2018-09-04T08:52:21.759Z,58.63
2018-09-04T08:54:57.753Z,56.00
2018-09-04T08:57:33.858Z,53.23
2018-09-04T09:00:09.790Z,55.27
2018-09-04T09:02:45.835Z,58.97
2018-09-04T09:05:21.736Z,53.63
2018-09-04T09:07:58.527Z,55.57
2018-09-04T09:10:34.649Z,56.40
2018-09-04T09:13:10.633Z,50.37
2018-09-04T09:15:46.464Z,55.07
2018-09-04T09:18:22.536Z,50.70
2018-09-04T09:20:58.477Z,51.10
2018-09-04T09:23:34.432Z,47.17
2018-09-04T09:26:10.428Z,51.10
2018-09-04T09:28:46.372Z,48.03
2018-09-04T09:31:22.228Z,50.63
2018-09-04T09:33:58.052Z,47.87
2018-09-04T09:36:34.289Z,45.60
2018-09-04T09:39:11.241Z,47.43
2018-09-04T09:41:47.331Z,45.80
2018-09-04T09:44:23.415Z,45.93
2018-09-04T09:47:03.217Z,42.97
2018-09-04T09:49:39.171Z,44.00
2018-09-04T09:52:15.115Z,44.10
2018-09-04T09:54:51.161Z,40.70
2018-09-04T09:57:27.302Z,40.87
2018-09-04T10:00:03.529Z,42.90
2018-09-04T10:02:44.654Z,43.53
2018-09-04T10:05:20.611Z,40.37
2018-09-04T10:07:56.766Z,38.67
2018-09-04T10:10:32.667Z,40.07
2018-09-04T10:13:08.566Z,41.67
2018-09-04T10:15:44.489Z,37.07
2018-09-04T10:18:20.311Z,40.83
2018-09-04T10:20:56.157Z,38.27
2018-09-04T10:23:32.649Z,40.83
2018-09-04T10:26:08.701Z,40.37
2018-09-04T10:28:44.492Z,40.27
2018-09-04T10:31:20.542Z,39.33
2018-09-04T10:33:56.309Z,43.57
2018-09-04T10:36:32.341Z,41.63
2018-09-04T10:39:14.143Z,40.77
2018-09-04T10:41:50.302Z,42.57
2018-09-04T10:44:30.568Z,37.87
2018-09-04T10:47:06.603Z,39.07
2018-09-04T10:49:42.691Z,39.87
2018-09-04T10:52:18.643Z,36.77
2018-09-04T10:54:54.388Z,33.93
2018-09-04T10:57:30.528Z,34.47
2018-09-04T11:00:07.297Z,34.10
2018-09-04T11:02:43.217Z,39.90
2018-09-04T11:05:19.432Z,35.70
2018-09-04T11:07:55.472Z,34.27
2018-09-04T11:10:31.500Z,29.50
2018-09-04T11:13:08.136Z,30.93
2018-09-04T11:15:44.103Z,29.70
2018-09-04T11:18:20.549Z,29.90
2018-09-04T11:20:56.369Z,27.07
2018-09-04T11:23:32.453Z,28.00
2018-09-04T11:26:14.525Z,29.33
2018-09-04T11:28:54.972Z,24.33
2018-09-04T11:31:30.766Z,25.97
2018-09-04T11:34:06.897Z,24.30
2018-09-04T11:36:42.810Z,28.60
2018-09-04T11:39:18.652Z,23.13
2018-09-04T11:41:54.530Z,21.33
2018-09-04T11:44:30.530Z,24.93
2018-09-04T11:47:06.537Z,24.63
2018-09-04T11:49:43.163Z,23.53
2018-09-04T11:52:19.158Z,25.23
2018-09-04T11:54:55.309Z,21.03
2018-09-04T11:57:31.123Z,21.07
2018-09-04T12:00:09.580Z,22.73
2018-09-04T12:02:46.100Z,23.87
2018-09-04T12:05:21.996Z,21.70
2018-09-04T12:07:57.880Z,21.70
2018-09-04T12:10:33.866Z,20.47
2018-09-04T12:13:09.888Z,23.73
2018-09-04T12:15:45.713Z,22.23
2018-09-04T12:18:21.568Z,22.97
2018-09-04T12:20:59.152Z,20.83
2018-09-04T12:23:34.960Z,21.13
2018-09-04T12:26:11.825Z,19.47
2018-09-04T12:28:47.669Z,18.47
2018-09-04T12:31:23.622Z,19.10
2018-09-04T12:33:59.668Z,19.30
2018-09-04T12:36:35.770Z,20.07
2018-09-04T12:39:11.625Z,18.77
2018-09-04T12:41:50.417Z,20.73
2018-09-04T12:44:26.378Z,17.63
2018-09-04T12:47:02.373Z,17.80
2018-09-04T12:49:38.403Z,18.60
2018-09-04T12:52:14.234Z,19.27
2018-09-04T12:54:50.261Z,23.50
2018-09-04T12:57:26.129Z,16.30
2018-09-04T13:00:02.113Z,16.07
2018-09-04T13:02:38.100Z,15.57
2018-09-04T13:05:13.952Z,14.80
2018-09-04T13:07:49.757Z,15.83
2018-09-04T13:10:25.593Z,13.50
2018-09-04T13:13:01.533Z,14.20
2018-09-04T13:15:37.957Z,14.40
2018-09-04T13:18:13.762Z,17.53
2018-09-04T13:20:49.893Z,13.67
2018-09-04T13:23:25.768Z,13.27
2018-09-04T13:26:01.929Z,13.67
2018-09-04T13:28:37.936Z,14.93
2018-09-04T13:31:13.892Z,14.47
2018-09-04T13:33:49.782Z,14.53
2018-09-04T13:36:25.923Z,14.97
2018-09-04T13:39:01.913Z,12.83
2018-09-04T13:41:37.889Z,12.80
2018-09-04T13:44:13.987Z,14.67
2018-09-04T13:46:49.835Z,13.77
2018-09-04T13:49:25.746Z,12.27
2018-09-04T13:52:01.778Z,12.47
2018-09-04T13:54:37.606Z,13.27
2018-09-04T13:57:13.379Z,12.67
2018-09-04T13:59:49.357Z,18.67
2018-09-04T14:02:25.305Z,12.50
2018-09-04T14:05:01.189Z,13.40
2018-09-04T14:07:37.157Z,13.70
2018-09-04T14:10:13.166Z,13.67
2018-09-04T14:12:49.077Z,13.47
2018-09-04T14:15:25.294Z,13.60
2018-09-04T14:18:01.433Z,12.47
2018-09-04T14:20:37.518Z,13.23
2018-09-04T14:23:13.502Z,14.30
2018-09-04T14:25:49.512Z,13.93
2018-09-04T14:28:41.384Z,14.27
2018-09-04T14:31:01.667Z,14.20
2018-09-04T14:33:37.681Z,14.90
2018-09-04T14:36:13.653Z,13.27
2018-09-04T14:38:49.485Z,14.47
2018-09-04T14:41:25.606Z,15.43
2018-09-04T14:44:01.301Z,17.40
2018-09-04T14:46:37.284Z,15.50
2018-09-04T14:49:13.341Z,16.73
2018-09-04T14:51:49.262Z,14.83
2018-09-04T14:54:25.163Z,15.23
2018-09-04T14:57:01.206Z,15.60
2018-09-04T14:59:37.198Z,16.17
2018-09-04T15:02:12.992Z,15.90
2018-09-04T15:05:30.338Z,15.33
2018-09-04T15:08:06.322Z,15.03
2018-09-04T15:10:42.246Z,15.10
2018-09-04T15:13:17.937Z,15.00
2018-09-04T15:15:53.988Z,14.90
2018-09-04T15:18:29.866Z,14.63
2018-09-04T15:21:05.906Z,14.83
2018-09-04T15:23:41.964Z,14.23
2018-09-04T15:26:17.922Z,14.03
2018-09-04T15:28:53.766Z,14.50
2018-09-04T15:31:29.822Z,13.80
2018-09-04T15:34:05.833Z,15.90
2018-09-04T15:36:41.621Z,14.47
2018-09-04T15:39:17.645Z,13.83
2018-09-04T15:41:53.573Z,13.97
2018-09-04T15:44:29.561Z,14.07
2018-09-04T15:47:05.557Z,13.50
2018-09-04T15:49:45.750Z,14.67
2018-09-04T15:52:21.801Z,14.77
2018-09-04T15:54:57.544Z,15.13
2018-09-04T15:57:33.297Z,13.90
2018-09-04T16:00:09.463Z,16.20
2018-09-04T16:02:45.474Z,14.50
2018-09-04T16:05:21.320Z,15.63
2018-09-04T16:07:57.314Z,14.63
2018-09-04T16:10:33.370Z,13.47
2018-09-04T16:13:09.402Z,17.13
2018-09-04T16:15:45.332Z,14.37
2018-09-04T16:18:21.464Z,17.63
2018-09-04T16:20:57.533Z,18.83
2018-09-04T16:23:33.533Z,19.60
2018-09-04T16:26:09.472Z,18.77
2018-09-04T16:28:45.448Z,18.23
2018-09-04T16:31:21.465Z,17.43
2018-09-04T16:33:57.173Z,16.60
2018-09-04T16:36:33.210Z,16.97
2018-09-04T16:39:09.010Z,14.40
2018-09-04T16:41:45.028Z,16.13
2018-09-04T16:44:20.795Z,16.57
2018-09-04T16:46:56.674Z,18.03
2018-09-04T16:49:32.565Z,15.03
2018-09-04T16:52:08.497Z,15.40
2018-09-04T16:54:44.431Z,16.67
2018-09-04T16:57:20.335Z,13.40
2018-09-04T16:59:56.317Z,14.23
2018-09-04T17:02:32.493Z,12.50
2018-09-04T17:05:08.344Z,11.43
2018-09-04T17:07:44.484Z,11.07
2018-09-04T17:10:20.254Z,10.27
2018-09-04T17:12:56.306Z,9.60
2018-09-04T17:15:32.168Z,8.93
2018-09-04T17:18:08.198Z,8.57
2018-09-04T17:20:44.120Z,8.53
2018-09-04T17:23:19.893Z,8.93
2018-09-04T17:25:55.877Z,9.00
2018-09-04T17:28:31.928Z,9.20
2018-09-04T17:31:07.842Z,8.70
2018-09-04T17:33:43.732Z,8.60
2018-09-04T17:36:19.798Z,8.83
2018-09-04T17:38:55.793Z,9.23
2018-09-04T17:41:31.818Z,8.73
2018-09-04T17:44:07.900Z,8.10
2018-09-04T17:46:43.817Z,8.40
2018-09-04T17:49:19.674Z,8.90
2018-09-04T17:51:55.617Z,8.70
2018-09-04T17:54:31.421Z,8.77
2018-09-04T17:57:07.586Z,10.20
2018-09-04T17:59:43.562Z,9.33
2018-09-04T18:02:19.561Z,10.10
2018-09-04T18:04:55.535Z,10.73
2018-09-04T18:07:31.508Z,8.70
2018-09-04T18:10:07.667Z,10.03
2018-09-04T18:12:43.602Z,8.43
2018-09-04T18:15:19.446Z,11.60
2018-09-04T18:17:55.355Z,9.30
2018-09-04T18:20:31.365Z,10.30
2018-09-04T18:23:07.221Z,10.20
2018-09-04T18:25:43.107Z,10.43
2018-09-04T18:28:19.154Z,10.03
2018-09-04T18:30:55.077Z,9.53
2018-09-04T18:33:31.017Z,10.23
2018-09-04T18:36:07.025Z,9.23
2018-09-04T18:38:42.847Z,9.70
2018-09-04T18:41:18.685Z,9.07
2018-09-04T18:43:54.534Z,9.73
2018-09-04T18:46:30.551Z,9.63
2018-09-04T18:49:06.601Z,9.30
2018-09-04T18:51:42.714Z,9.50
2018-09-04T18:54:18.745Z,10.03
2018-09-04T18:56:54.537Z,9.73
2018-09-04T18:59:30.378Z,9.43
2018-09-04T19:02:06.604Z,10.47
2018-09-04T19:04:42.576Z,11.90
2018-09-04T19:07:18.596Z,11.63
2018-09-04T19:09:54.470Z,10.77
2018-09-04T19:12:30.366Z,13.00
2018-09-04T19:15:06.548Z,11.07
2018-09-04T19:17:42.427Z,11.07
2018-09-04T19:20:18.540Z,13.13
2018-09-04T19:25:36.899Z,11.80
2018-09-04T19:28:43.516Z,12.50
2018-09-04T19:31:20.110Z,12.73
2018-09-04T19:33:56.383Z,12.37
2018-09-04T19:36:32.388Z,12.30
2018-09-04T19:39:10.020Z,12.63
2018-09-04T19:41:46.013Z,13.70
2018-09-04T19:44:21.840Z,13.87
2018-09-04T19:46:57.770Z,14.20
2018-09-04T19:49:33.850Z,13.20
2018-09-04T19:52:09.940Z,18.03
2018-09-04T19:54:45.964Z,16.20
2018-09-04T19:57:22.081Z,13.97
2018-09-04T19:59:58.201Z,13.23
2018-09-04T20:02:33.968Z,12.50
2018-09-04T20:05:10.433Z,14.33
2018-09-04T20:07:46.327Z,14.30
2018-09-04T20:10:22.309Z,12.53
2018-09-04T20:12:58.232Z,13.73
2018-09-04T20:15:34.046Z,13.43
2018-09-04T20:18:09.933Z,14.03
2018-09-04T20:20:45.987Z,14.77
2018-09-04T20:23:21.902Z,16.93
2018-09-04T20:25:57.877Z,15.63
2018-09-04T20:28:33.841Z,16.23
2018-09-04T20:31:12.712Z,15.63
2018-09-04T20:33:48.996Z,17.80
2018-09-04T20:36:24.713Z,19.87
2018-09-04T20:39:00.603Z,17.50
2018-09-04T20:41:36.677Z,17.30
2018-09-04T20:44:12.669Z,15.17
2018-09-04T20:46:48.497Z,15.07
2018-09-04T20:49:24.385Z,15.00
2018-09-04T20:52:00.479Z,15.53
2018-09-04T20:54:36.351Z,16.07
2018-09-04T20:57:30.045Z,16.67
2018-09-04T21:00:25.534Z,16.10
2018-09-04T21:03:18.285Z,16.30
2018-09-04T21:06:10.881Z,14.70
2018-09-04T21:09:58.503Z,16.23
2018-09-04T21:12:34.360Z,15.63
2018-09-04T21:15:10.270Z,15.40
2018-09-04T21:17:46.143Z,16.67
2018-09-04T21:20:25.616Z,16.40
2018-09-04T21:23:01.594Z,16.90
2018-09-04T21:25:37.458Z,15.57
2018-09-04T21:28:13.381Z,16.30
2018-09-04T21:30:49.300Z,18.10
2018-09-04T21:33:25.156Z,18.43
2018-09-04T21:36:00.961Z,17.83
2018-09-04T21:38:36.934Z,17.43
2018-09-04T21:41:12.971Z,17.23
2018-09-04T21:43:49.097Z,18.50
2018-09-04T21:46:24.914Z,17.43
2018-09-04T21:49:00.752Z,19.53
2018-09-04T21:51:36.604Z,17.47
2018-09-04T21:54:12.482Z,17.30
2018-09-04T21:56:48.317Z,17.83
2018-09-04T21:59:24.344Z,17.40
2018-09-04T22:02:00.298Z,16.80
2018-09-04T22:04:36.292Z,17.77
2018-09-04T22:07:13.054Z,17.57
2018-09-04T22:09:49.055Z,16.67
2018-09-04T22:12:25.139Z,18.13
2018-09-04T22:15:00.941Z,17.97
2018-09-04T22:17:37.913Z,16.70
2018-09-04T22:20:13.876Z,17.30
2018-09-04T22:22:49.737Z,18.07
2018-09-04T22:25:25.740Z,16.87
2018-09-04T22:28:01.544Z,18.17
2018-09-04T22:30:37.459Z,17.30
2018-09-04T22:33:13.456Z,18.00
2018-09-04T22:35:49.462Z,17.50
2018-09-04T22:38:25.269Z,17.40
2018-09-04T22:41:01.290Z,18.97
2018-09-04T22:43:37.790Z,19.53
2018-09-04T22:46:13.735Z,17.10
2018-09-04T22:48:49.537Z,19.30
2018-09-04T22:51:30.644Z,18.60
2018-09-04T22:54:07.883Z,22.27
2018-09-04T22:56:43.975Z,21.50
2018-09-04T22:59:20.051Z,27.23
2018-09-04T23:01:55.938Z,24.13
2018-09-04T23:04:31.869Z,21.13
2018-09-04T23:07:07.893Z,22.30
2018-09-04T23:09:44.117Z,21.50
2018-09-04T23:12:20.116Z,21.10
2018-09-04T23:14:56.157Z,21.63
2018-09-04T23:17:32.181Z,22.03
2018-09-04T23:20:08.280Z,20.33
2018-09-04T23:22:44.284Z,21.23
2018-09-04T23:25:20.221Z,23.63
2018-09-04T23:27:56.117Z,24.80
2018-09-04T23:30:32.031Z,24.10
2018-09-04T23:33:08.462Z,22.30
2018-09-04T23:35:44.418Z,20.67
2018-09-04T23:38:22.714Z,21.13
2018-09-04T23:40:58.626Z,22.20
2018-09-04T23:43:34.617Z,21.27
2018-09-04T23:46:10.528Z,22.20
2018-09-04T23:48:46.511Z,23.57
2018-09-04T23:51:22.444Z,23.17
2018-09-04T23:53:58.553Z,22.33
2018-09-04T23:56:34.732Z,22.93
2018-09-04T23:59:10.669Z,23.17
